Time;durP1;ratioP1;P1;durP2;ratioP2;P2;SDS_P1;SDS_P2;PMS_P1;PMS_P2;Temp;Humidity;BMP_temperature;BMP_pressure;BME280_temperature;BME280_humidity;BME280_pressure;Samples;Min_cycle;Max_cycle;Signal;HPM_P1;HPM_P2
2022/07/08 00:00:17;;;;;;;27.10;3.50;;;17.60;27.90;;;;;;5057857;28;20473;-73
2022/07/08 00:02:44;;;;;;;29.57;3.93;;;17.60;27.70;;;;;;5046148;28;20469;-72
2022/07/08 00:05:11;;;;;;;26.70;3.93;;;17.60;28.00;;;;;;5068433;28;20461;-70
2022/07/08 00:07:39;;;;;;;27.63;3.90;;;17.60;27.80;;;;;;5063304;28;20461;-72
2022/07/08 00:10:07;;;;;;;27.00;3.73;;;17.60;28.00;;;;;;5063086;28;20996;-71
2022/07/08 00:12:34;;;;;;;28.70;4.30;;;17.60;28.10;;;;;;5053869;28;20951;-72
2022/07/08 00:15:01;;;;;;;26.57;3.83;;;17.60;28.10;;;;;;5055250;28;20484;-72
2022/07/08 00:17:28;;;;;;;27.23;3.77;;;17.60;28.10;;;;;;5049623;28;20474;-71
2022/07/08 00:19:55;;;;;;;27.37;4.30;;;17.50;28.20;;;;;;5056046;28;20461;-71
2022/07/08 00:22:21;;;;;;;27.97;4.20;;;17.50;28.40;;;;;;5060405;28;20464;-72
2022/07/08 00:24:50;;;;;;;26.67;3.70;;;17.50;28.50;;;;;;5051071;28;20462;-72
2022/07/08 00:27:16;;;;;;;27.77;4.63;;;17.50;28.30;;;;;;5054531;28;20481;-72
2022/07/08 00:29:43;;;;;;;29.50;4.20;;;17.50;28.30;;;;;;5062534;28;20553;-71
2022/07/08 00:32:10;;;;;;;28.13;4.30;;;17.50;28.20;;;;;;5056856;28;20474;-70
2022/07/08 00:34:37;;;;;;;27.50;3.90;;;17.50;28.30;;;;;;5053359;28;20847;-72
2022/07/08 00:37:04;;;;;;;28.10;4.33;;;17.50;28.40;;;;;;5053975;28;21031;-71
2022/07/08 00:39:31;;;;;;;30.10;5.50;;;17.50;28.30;;;;;;5047942;28;20465;-71
2022/07/08 00:41:59;;;;;;;29.10;4.80;;;17.50;28.30;;;;;;5048027;28;20473;-72
2022/07/08 00:44:26;;;;;;;28.10;4.30;;;17.50;28.20;;;;;;5052220;28;20457;-71
2022/07/08 00:46:53;;;;;;;29.63;4.17;;;17.50;28.30;;;;;;5049965;28;20482;-72
2022/07/08 00:49:20;;;;;;;27.20;4.30;;;17.50;28.20;;;;;;5054766;28;20476;-73
2022/07/08 00:51:48;;;;;;;27.30;3.70;;;17.50;27.80;;;;;;5055524;28;20969;-70
2022/07/08 00:54:17;;;;;;;29.30;4.40;;;17.50;28.60;;;;;;5063590;28;20464;-70
2022/07/08 00:56:44;;;;;;;29.03;5.07;;;17.50;27.90;;;;;;5069102;28;20846;-72
2022/07/08 00:59:13;;;;;;;30.20;5.60;;;17.50;27.80;;;;;;5042632;28;20465;-72
2022/07/08 01:01:40;;;;;;;31.10;5.70;;;17.50;27.80;;;;;;5056048;28;20488;-72
2022/07/08 01:04:07;;;;;;;29.37;5.43;;;17.50;27.70;;;;;;5065341;28;20972;-71
2022/07/08 01:06:34;;;;;;;27.00;4.37;;;17.50;28.00;;;;;;5065702;28;20820;-73
2022/07/08 01:09:02;;;;;;;29.00;3.93;;;17.50;28.00;;;;;;5052759;28;20473;-71
2022/07/08 01:11:29;;;;;;;26.90;3.90;;;17.50;28.20;;;;;;5054388;28;20465;-71
2022/07/08 01:13:56;;;;;;;25.53;2.97;;;17.50;28.50;;;;;;5070229;28;20465;-72
2022/07/08 01:16:24;;;;;;;31.87;4.33;;;17.50;28.60;;;;;;5062397;28;20482;-71
2022/07/08 01:18:51;;;;;;;27.50;3.27;;;17.50;29.00;;;;;;5056418;28;20465;-72
2022/07/08 01:21:19;;;;;;;27.10;3.73;;;17.50;28.80;;;;;;5045056;28;20481;-73
2022/07/08 01:23:46;;;;;;;26.87;3.87;;;17.50;28.80;;;;;;5051928;28;20960;-73
2022/07/08 01:26:14;;;;;;;27.93;3.43;;;17.50;28.90;;;;;;5059978;28;20481;-72
2022/07/08 01:28:42;;;;;;;25.30;3.30;;;17.50;28.70;;;;;;5069140;28;20461;-72
2022/07/08 01:31:09;;;;;;;26.40;3.40;;;17.50;28.60;;;;;;5052475;28;20994;-72
2022/07/08 01:33:36;;;;;;;27.03;3.30;;;17.40;28.60;;;;;;5054094;28;20834;-71
2022/07/08 01:36:04;;;;;;;26.50;3.27;;;17.50;29.10;;;;;;5062074;28;20509;-72
2022/07/08 01:38:32;;;;;;;28.07;3.67;;;17.50;29.20;;;;;;5064133;28;20461;-71
2022/07/08 01:40:59;;;;;;;25.77;3.20;;;17.50;29.50;;;;;;5055812;28;20833;-71
2022/07/08 01:43:26;;;;;;;27.57;3.40;;;17.50;29.40;;;;;;5050370;28;20588;-71
2022/07/08 01:45:53;;;;;;;28.37;3.30;;;17.50;29.40;;;;;;5052535;28;20474;-72
2022/07/08 01:48:19;;;;;;;26.40;3.30;;;17.50;29.60;;;;;;5055405;28;20460;-72
2022/07/08 01:50:46;;;;;;;26.30;3.47;;;17.50;29.60;;;;;;5048239;28;20466;-72
2022/07/08 01:53:13;;;;;;;26.27;3.60;;;17.50;29.00;;;;;;5051195;28;20462;-72
2022/07/08 01:55:41;;;;;;;26.97;4.10;;;17.40;29.20;;;;;;5050329;28;20462;-71
2022/07/08 01:58:08;;;;;;;29.10;3.80;;;17.40;29.10;;;;;;5047667;28;20482;-71
2022/07/08 02:00:35;;;;;;;28.83;4.03;;;17.40;29.10;;;;;;5053868;28;20466;-72
2022/07/08 02:03:02;;;;;;;27.00;3.53;;;17.30;29.70;;;;;;5053095;28;20469;-71
2022/07/08 02:05:32;;;;;;;29.80;3.90;;;17.30;29.40;;;;;;5054126;28;20549;-73
2022/07/08 02:07:59;;;;;;;27.00;4.50;;;17.20;29.10;;;;;;5049193;28;20462;-73
2022/07/08 02:10:26;;;;;;;32.10;6.20;;;17.10;29.30;;;;;;5054722;28;20465;-72
2022/07/08 02:12:53;;;;;;;29.20;6.57;;;17.10;29.40;;;;;;5051065;28;20459;-72
2022/07/08 02:15:20;;;;;;;30.00;7.00;;;17.00;29.20;;;;;;5051000;28;20990;-72
2022/07/08 02:17:47;;;;;;;30.57;7.00;;;17.00;29.10;;;;;;5056575;28;20481;-72
2022/07/08 02:20:14;;;;;;;35.00;8.20;;;16.90;29.50;;;;;;5050784;28;20457;-71
2022/07/08 02:22:42;;;;;;;32.50;7.80;;;16.90;29.40;;;;;;5067962;28;20465;-73
2022/07/08 02:25:09;;;;;;;33.23;7.30;;;16.80;29.30;;;;;;5055596;28;20486;-71
2022/07/08 02:27:36;;;;;;;29.67;6.10;;;16.70;29.20;;;;;;5060472;28;20485;-74
2022/07/08 02:30:05;;;;;;;29.07;7.10;;;16.70;29.40;;;;;;5059261;28;20464;-72
2022/07/08 02:32:32;;;;;;;31.70;6.73;;;16.70;29.80;;;;;;5053809;28;20449;-71
2022/07/08 02:34:59;;;;;;;31.40;5.90;;;16.70;29.60;;;;;;5049223;28;20460;-71
2022/07/08 02:37:26;;;;;;;29.80;5.80;;;16.60;29.70;;;;;;5056041;28;21248;-72
2022/07/08 02:39:53;;;;;;;27.43;4.80;;;16.60;29.80;;;;;;5049902;28;20557;-71
2022/07/08 02:42:20;;;;;;;30.03;5.20;;;16.60;29.90;;;;;;5058910;28;20457;-72
2022/07/08 02:44:47;;;;;;;28.73;3.60;;;16.70;30.10;;;;;;5064585;28;20775;-72
2022/07/08 02:47:15;;;;;;;32.50;3.20;;;16.70;28.50;;;;;;5051814;28;20484;-72
2022/07/08 02:49:42;;;;;;;35.47;3.97;;;16.70;26.90;;;;;;5050586;28;20476;-72
2022/07/08 02:52:18;;;;;;;37.30;3.43;;;16.70;25.40;;;;;;5050272;28;20461;-71
2022/07/08 02:54:44;;;;;;;30.80;3.13;;;16.60;24.60;;;;;;5054032;28;20466;-70
2022/07/08 02:57:11;;;;;;;32.10;3.37;;;16.70;23.80;;;;;;5064406;28;20863;-71
2022/07/08 02:59:38;;;;;;;31.90;3.23;;;16.60;23.60;;;;;;5049165;28;20465;-71
2022/07/08 03:02:05;;;;;;;35.10;3.77;;;16.60;22.80;;;;;;5053289;28;20465;-71
2022/07/08 03:04:33;;;;;;;32.37;3.27;;;16.50;21.90;;;;;;5058535;28;20465;-73
2022/07/08 03:07:00;;;;;;;31.90;3.20;;;16.50;21.60;;;;;;5067014;28;20839;-73
2022/07/08 03:09:26;;;;;;;33.10;3.27;;;16.50;21.20;;;;;;5058931;28;20815;-72
2022/07/08 03:12:25;;;;;;;32.30;3.80;;;16.40;20.70;;;;;;5046208;28;21055;-74
2022/07/08 03:14:52;;;;;;;36.97;3.90;;;16.40;20.70;;;;;;5054557;28;20536;-73
2022/07/08 03:17:19;;;;;;;32.07;2.80;;;16.40;20.10;;;;;;5052374;28;20706;-72
2022/07/08 03:19:47;;;;;;;32.10;3.10;;;16.30;20.00;;;;;;5055248;28;20458;-72
2022/07/08 03:22:15;;;;;;;33.53;3.30;;;16.30;20.20;;;;;;5057607;28;20457;-73
2022/07/08 03:24:41;;;;;;;33.27;2.90;;;16.30;20.80;;;;;;5051909;28;20462;-72
2022/07/08 03:27:08;;;;;;;32.77;3.20;;;16.20;20.20;;;;;;5061507;28;20487;-74
2022/07/08 03:29:35;;;;;;;33.10;2.77;;;16.20;20.20;;;;;;5062704;28;20461;-72
2022/07/08 03:32:02;;;;;;;32.80;3.20;;;16.20;20.00;;;;;;5055310;28;20488;-72
2022/07/08 03:34:29;;;;;;;32.87;2.80;;;16.20;19.90;;;;;;5056986;28;20469;-74
2022/07/08 03:36:57;;;;;;;32.90;2.83;;;16.20;19.80;;;;;;5063091;28;20715;-72
2022/07/08 03:39:24;;;;;;;34.73;2.97;;;16.20;19.70;;;;;;5045752;28;20568;-71
2022/07/08 03:41:50;;;;;;;35.53;3.47;;;16.10;19.60;;;;;;5054076;28;20918;-72
2022/07/08 03:44:17;;;;;;;30.77;2.80;;;16.20;19.40;;;;;;5053811;28;20540;-72
2022/07/08 03:46:43;;;;;;;31.73;2.90;;;16.10;19.40;;;;;;5066438;28;20229;-65
2022/07/08 03:49:10;;;;;;;32.67;2.50;;;16.10;19.40;;;;;;5047044;28;20535;-66
2022/07/08 03:51:37;;;;;;;31.47;2.83;;;16.10;19.30;;;;;;5052907;28;20468;-65
2022/07/08 03:54:05;;;;;;;32.33;2.90;;;16.00;19.30;;;;;;5046147;28;21006;-67
2022/07/08 03:56:32;;;;;;;32.03;3.00;;;16.00;19.50;;;;;;5057061;28;20516;-68
2022/07/08 03:58:59;;;;;;;32.30;2.80;;;16.10;19.60;;;;;;5056577;28;20473;-66
2022/07/08 04:01:25;;;;;;;33.60;3.00;;;16.00;19.40;;;;;;5049350;28;20474;-65
2022/07/08 04:03:52;;;;;;;37.80;3.17;;;16.10;19.40;;;;;;5049917;28;20472;-65
2022/07/08 04:06:19;;;;;;;31.90;2.90;;;16.00;19.30;;;;;;5037941;28;20477;-66
2022/07/08 04:08:46;;;;;;;33.77;3.07;;;16.00;19.40;;;;;;5048384;28;20857;-65
2022/07/08 04:11:14;;;;;;;32.23;3.30;;;16.00;19.50;;;;;;5057591;28;20468;-65
2022/07/08 04:13:41;;;;;;;30.80;3.17;;;16.00;19.60;;;;;;5047260;28;20468;-65
2022/07/08 04:16:12;;;;;;;30.57;2.90;;;16.00;19.70;;;;;;5044828;28;20475;-64
2022/07/08 04:18:39;;;;;;;31.90;3.00;;;16.10;19.80;;;;;;5047529;28;20552;-72
2022/07/08 04:21:06;;;;;;;32.70;2.70;;;16.10;20.00;;;;;;5046909;28;20462;-72
2022/07/08 04:23:33;;;;;;;31.87;3.00;;;16.10;19.50;;;;;;5043136;28;20467;-73
2022/07/08 04:26:00;;;;;;;30.03;2.73;;;16.10;19.50;;;;;;5049111;28;20539;-72
2022/07/08 04:28:28;;;;;;;34.50;2.90;;;16.10;19.60;;;;;;5056267;28;20458;-72
2022/07/08 04:30:56;;;;;;;34.60;3.20;;;16.20;19.60;;;;;;5045981;28;20473;-73
2022/07/08 04:33:22;;;;;;;32.10;3.13;;;16.20;19.40;;;;;;5058348;28;20958;-73
2022/07/08 04:35:49;;;;;;;33.33;3.20;;;16.20;19.40;;;;;;5061159;28;20486;-73
2022/07/08 04:38:16;;;;;;;32.90;2.83;;;16.20;19.40;;;;;;5064113;28;20884;-72
2022/07/08 04:40:43;;;;;;;32.20;3.50;;;16.30;19.40;;;;;;5051976;28;20466;-72
2022/07/08 04:43:10;;;;;;;32.93;2.70;;;16.30;19.30;;;;;;5049166;28;20674;-73
2022/07/08 04:45:38;;;;;;;31.43;2.57;;;16.30;19.40;;;;;;5056527;28;20515;-72
2022/07/08 04:48:05;;;;;;;31.00;2.63;;;16.40;19.40;;;;;;5063367;28;20464;-73
2022/07/08 04:50:32;;;;;;;33.97;3.33;;;16.40;19.40;;;;;;5069216;28;20461;-73
2022/07/08 04:52:59;;;;;;;31.10;3.23;;;16.40;19.20;;;;;;5056741;28;20464;-73
2022/07/08 04:55:29;;;;;;;31.50;4.03;;;16.40;19.30;;;;;;5047121;28;20918;-74
2022/07/08 04:57:57;;;;;;;32.67;2.77;;;16.40;19.40;;;;;;5049042;28;20525;-73
2022/07/08 05:00:23;;;;;;;31.00;3.10;;;16.40;19.40;;;;;;5069337;28;20491;-73
2022/07/08 05:02:52;;;;;;;32.63;3.50;;;16.40;19.50;;;;;;5049885;28;20965;-73
2022/07/08 05:05:19;;;;;;;31.93;2.97;;;16.50;19.70;;;;;;5052718;28;20489;-73
2022/07/08 05:07:47;;;;;;;34.73;3.70;;;16.50;19.70;;;;;;5047941;28;20568;-72
2022/07/08 05:10:14;;;;;;;32.40;4.03;;;16.50;19.40;;;;;;5065720;28;20461;-73
2022/07/08 05:12:41;;;;;;;33.43;2.80;;;16.50;19.20;;;;;;5052317;28;20501;-74
2022/07/08 05:15:09;;;;;;;32.30;3.00;;;16.60;19.30;;;;;;5060820;28;20466;-73
2022/07/08 05:17:36;;;;;;;30.33;2.53;;;16.60;19.50;;;;;;5053938;28;20866;-74
2022/07/08 05:20:05;;;;;;;31.73;3.20;;;16.60;19.60;;;;;;5060493;28;21182;-74
2022/07/08 05:22:31;;;;;;;30.47;2.50;;;16.70;19.40;;;;;;5058538;28;20473;-73
2022/07/08 05:24:58;;;;;;;35.53;3.80;;;16.80;19.90;;;;;;5043975;28;20464;-72
2022/07/08 05:27:25;;;;;;;32.73;3.40;;;16.80;19.10;;;;;;5051965;28;20486;-73
2022/07/08 05:29:52;;;;;;;31.60;3.17;;;16.90;19.00;;;;;;5053746;28;20941;-74
2022/07/08 05:32:19;;;;;;;29.57;2.40;;;17.10;18.90;;;;;;5050614;28;20478;-74
2022/07/08 05:34:45;;;;;;;32.67;2.90;;;17.20;18.40;;;;;;5047842;28;20462;-73
2022/07/08 05:37:14;;;;;;;39.80;3.30;;;17.40;18.40;;;;;;5055484;28;20588;-73
2022/07/08 05:39:41;;;;;;;34.80;2.30;;;17.50;18.00;;;;;;5054050;28;20487;-73
2022/07/08 05:42:08;;;;;;;34.50;3.00;;;17.80;17.80;;;;;;5063839;28;20465;-74
2022/07/08 05:44:36;;;;;;;30.60;2.70;;;18.20;17.60;;;;;;5056416;28;20516;-73
2022/07/08 05:47:03;;;;;;;34.30;3.73;;;19.60;16.70;;;;;;5053402;28;20486;-73
2022/07/08 05:49:30;;;;;;;32.80;3.10;;;22.20;13.50;;;;;;5051976;28;20804;-73
2022/07/08 05:51:56;;;;;;;29.80;2.70;;;24.70;9.10;;;;;;5054713;28;20483;-74
2022/07/08 05:54:24;;;;;;;29.53;2.40;;;26.80;5.20;;;;;;5065877;28;20489;-74
2022/07/08 05:56:51;;;;;;;28.90;2.30;;;28.50;2.10;;;;;;5068662;28;20517;-73
2022/07/08 05:59:18;;;;;;;28.10;2.20;;;30.10;1.00;;;;;;5052502;28;20482;-74
2022/07/08 06:01:45;;;;;;;29.57;2.47;;;31.50;1.00;;;;;;5059943;28;20466;-72
2022/07/08 06:04:12;;;;;;;30.13;2.43;;;32.70;1.00;;;;;;5046756;28;20462;-73
2022/07/08 06:06:39;;;;;;;26.73;1.83;;;32.60;1.00;;;;;;5047328;28;21259;-73
2022/07/08 06:09:06;;;;;;;27.93;2.13;;;33.00;1.00;;;;;;5043517;28;20650;-73
2022/07/08 06:11:34;;;;;;;27.93;2.10;;;33.90;1.00;;;;;;5051623;28;20965;-75
2022/07/08 06:14:01;;;;;;;28.27;1.90;;;33.90;1.00;;;;;;5056336;28;20471;-75
2022/07/08 06:16:28;;;;;;;27.30;2.10;;;34.40;1.00;;;;;;5068144;28;20485;-73
2022/07/08 06:18:55;;;;;;;29.07;2.20;;;35.60;1.00;;;;;;5050750;28;21654;-74
2022/07/08 06:21:21;;;;;;;25.03;1.60;;;36.70;1.00;;;;;;5050878;28;20484;-74
2022/07/08 06:23:48;;;;;;;27.70;2.47;;;37.40;1.00;;;;;;5043704;28;20467;-74
2022/07/08 06:26:17;;;;;;;26.50;2.30;;;36.70;1.00;;;;;;5051903;28;21026;-74
2022/07/08 06:28:45;;;;;;;25.67;2.07;;;35.30;1.00;;;;;;5067898;28;20515;-74
2022/07/08 06:31:12;;;;;;;26.47;2.37;;;33.70;1.00;;;;;;5053515;28;20472;-73
2022/07/08 06:33:39;;;;;;;27.13;2.47;;;33.30;1.00;;;;;;5059045;28;20472;-74
2022/07/08 06:36:07;;;;;;;27.13;2.03;;;33.90;1.00;;;;;;5044941;28;20510;-73
2022/07/08 06:38:33;;;;;;;25.43;1.60;;;35.20;1.00;;;;;;5067137;28;20488;-73
2022/07/08 06:41:00;;;;;;;28.47;2.10;;;37.20;1.00;;;;;;5059313;28;20464;-74
2022/07/08 06:43:27;;;;;;;25.67;1.90;;;38.80;1.00;;;;;;5053515;28;20466;-74
2022/07/08 06:45:55;;;;;;;24.70;1.60;;;40.10;1.00;;;;;;5048821;28;20478;-74
2022/07/08 06:48:22;;;;;;;27.93;2.20;;;41.20;1.00;;;;;;5068994;28;20467;-73
2022/07/08 06:50:49;;;;;;;25.73;2.30;;;41.50;1.00;;;;;;5066385;28;20511;-74
2022/07/08 06:53:16;;;;;;;26.07;2.17;;;39.50;1.00;;;;;;5058769;28;20465;-74
2022/07/08 06:55:43;;;;;;;25.60;1.90;;;38.30;1.00;;;;;;5036243;28;20474;-74
2022/07/08 06:58:10;;;;;;;25.90;2.07;;;37.90;1.00;;;;;;5062715;28;20563;-74
2022/07/08 07:00:36;;;;;;;26.60;2.43;;;36.20;1.00;;;;;;5060516;28;20461;-74
2022/07/08 07:03:04;;;;;;;28.50;2.07;;;34.40;1.00;;;;;;5046997;28;20477;-74
2022/07/08 07:05:32;;;;;;;27.10;2.20;;;32.60;1.00;;;;;;5046008;28;20493;-74
2022/07/08 07:07:59;;;;;;;28.23;2.20;;;31.10;1.00;;;;;;5068439;28;20552;-74
2022/07/08 07:10:26;;;;;;;29.77;2.50;;;29.90;1.00;;;;;;5068764;28;20471;-73
2022/07/08 07:12:52;;;;;;;33.13;2.60;;;29.00;1.00;;;;;;5053999;28;20462;-73
2022/07/08 07:15:20;;;;;;;28.90;2.53;;;28.20;1.00;;;;;;5039444;28;20468;-73
2022/07/08 07:17:46;;;;;;;28.63;2.27;;;27.60;1.00;;;;;;5058894;28;20467;-72
2022/07/08 07:20:14;;;;;;;32.80;2.70;;;27.20;1.00;;;;;;5061099;28;20484;-74
2022/07/08 07:22:41;;;;;;;32.77;2.43;;;26.60;1.00;;;;;;5052133;28;20522;-73
2022/07/08 07:25:08;;;;;;;31.87;2.80;;;26.10;1.00;;;;;;5058767;28;20453;-73
2022/07/08 07:27:35;;;;;;;30.30;3.20;;;25.80;1.50;;;;;;5068059;28;20485;-73
2022/07/08 07:30:14;;;;;;;32.40;3.47;;;25.70;2.40;;;;;;5065244;28;20457;-73
2022/07/08 07:32:41;;;;;;;29.60;3.43;;;26.00;2.20;;;;;;5062487;28;20460;-73
2022/07/08 07:35:08;;;;;;;30.57;2.67;;;26.20;1.70;;;;;;5048362;28;20462;-74
2022/07/08 07:37:38;;;;;;;29.43;2.40;;;26.20;1.10;;;;;;5067738;28;20485;-73
2022/07/08 07:40:06;;;;;;;31.70;2.27;;;26.50;1.10;;;;;;5067733;28;20480;-73
2022/07/08 07:42:33;;;;;;;28.77;2.40;;;27.40;1.00;;;;;;5061958;28;20462;-74
2022/07/08 07:45:02;;;;;;;31.50;2.30;;;28.00;1.00;;;;;;5047847;28;20468;-74
2022/07/08 07:47:29;;;;;;;28.37;1.97;;;27.90;1.00;;;;;;5044278;28;20544;-73
2022/07/08 07:49:56;;;;;;;32.77;2.23;;;27.60;1.00;;;;;;5062949;28;20929;-73
2022/07/08 07:52:23;;;;;;;28.80;2.27;;;28.80;1.00;;;;;;5057231;28;20468;-73
2022/07/08 07:54:51;;;;;;;27.30;1.73;;;32.10;1.00;;;;;;5056941;28;20462;-73
2022/07/08 07:57:18;;;;;;;28.90;2.13;;;36.30;1.00;;;;;;5051973;28;20480;-74
2022/07/08 07:59:45;;;;;;;27.10;1.80;;;39.20;1.00;;;;;;5067320;28;20476;-74
2022/07/08 08:02:12;;;;;;;27.03;1.80;;;40.90;1.00;;;;;;5065626;28;20473;-73
2022/07/08 08:04:38;;;;;;;27.07;1.93;;;39.50;1.00;;;;;;5050200;28;20467;-73
2022/07/08 08:07:05;;;;;;;26.40;1.93;;;37.90;1.00;;;;;;5055214;28;20477;-73
2022/07/08 08:09:32;;;;;;;29.17;2.10;;;36.90;1.00;;;;;;5067317;28;20467;-73
2022/07/08 08:12:00;;;;;;;27.20;2.43;;;36.50;1.00;;;;;;5053879;28;20473;-73
2022/07/08 08:14:27;;;;;;;24.50;2.00;;;36.60;1.00;;;;;;5055644;28;20832;-74
2022/07/08 08:16:54;;;;;;;24.17;1.53;;;39.20;1.00;;;;;;5048567;28;20477;-74
2022/07/08 08:19:21;;;;;;;24.20;1.80;;;42.50;1.00;;;;;;5070873;28;20504;-74
2022/07/08 08:21:47;;;;;;;24.10;1.83;;;45.00;1.00;;;;;;5061481;28;20472;-74
2022/07/08 08:24:14;;;;;;;28.03;2.37;;;46.50;1.00;;;;;;5064036;28;20471;-73
2022/07/08 08:26:43;;;;;;;23.03;1.80;;;46.10;1.00;;;;;;5051251;28;20479;-73
2022/07/08 08:29:11;;;;;;;25.37;2.00;;;45.00;1.00;;;;;;5058821;28;20955;-73
2022/07/08 08:31:38;;;;;;;23.20;1.40;;;42.70;1.00;;;;;;5063100;28;20480;-73
2022/07/08 08:34:04;;;;;;;27.17;2.30;;;40.40;1.00;;;;;;5058227;28;20462;-73
2022/07/08 08:36:31;;;;;;;28.47;2.30;;;38.60;1.00;;;;;;5055421;28;20486;-73
2022/07/08 08:38:58;;;;;;;27.00;2.63;;;36.80;1.00;;;;;;5054682;28;20487;-74
2022/07/08 08:41:26;;;;;;;27.37;2.07;;;35.50;1.00;;;;;;5051814;28;20497;-73
2022/07/08 08:43:53;;;;;;;27.77;2.43;;;36.30;1.00;;;;;;5057684;28;20548;-72
2022/07/08 08:46:23;;;;;;;26.77;2.27;;;36.30;1.00;;;;;;5070461;28;20508;-72
2022/07/08 08:48:56;;;;;;;27.53;2.40;;;35.80;1.00;;;;;;5051530;28;20450;-73
2022/07/08 08:51:23;;;;;;;27.40;2.87;;;35.30;1.00;;;;;;5053532;28;21292;-73
2022/07/08 08:53:53;;;;;;;28.90;2.73;;;34.50;1.00;;;;;;5050167;28;20452;-74
2022/07/08 08:56:20;;;;;;;27.17;2.60;;;33.60;1.00;;;;;;5056662;28;20928;-73
2022/07/08 08:58:48;;;;;;;28.00;2.53;;;33.20;1.00;;;;;;5053559;28;20485;-74
2022/07/08 09:01:15;;;;;;;28.97;2.30;;;33.80;1.00;;;;;;5055591;28;20502;-73
2022/07/08 09:03:43;;;;;;;27.80;2.57;;;33.70;1.00;;;;;;5067807;28;20509;-74
2022/07/08 09:06:10;;;;;;;28.90;2.40;;;32.70;1.00;;;;;;5065155;28;20478;-74
2022/07/08 09:08:38;;;;;;;29.27;2.60;;;31.70;1.00;;;;;;5046900;28;20468;-72
2022/07/08 09:11:05;;;;;;;30.80;3.53;;;30.90;1.00;;;;;;5053997;28;20553;-73
2022/07/08 09:13:38;;;;;;;30.03;2.70;;;30.10;1.00;;;;;;5065666;28;20463;-72
2022/07/08 09:16:06;;;;;;;29.50;2.53;;;29.40;1.00;;;;;;5064922;28;20490;-72
2022/07/08 09:18:34;;;;;;;30.10;3.23;;;30.20;1.00;;;;;;5062070;28;20673;-73
2022/07/08 09:21:04;;;;;;;26.70;2.20;;;33.70;1.00;;;;;;5049107;28;20469;-74
2022/07/08 09:23:32;;;;;;;27.83;2.37;;;37.70;1.00;;;;;;5053573;28;20458;-73
2022/07/08 09:26:01;;;;;;;28.47;2.70;;;37.80;1.00;;;;;;5064616;28;20477;-73
2022/07/08 09:28:31;;;;;;;29.70;2.80;;;37.60;1.00;;;;;;5062553;28;20485;-73
2022/07/08 09:30:59;;;;;;;28.17;2.60;;;37.60;1.00;;;;;;5055069;28;20480;-73
2022/07/08 09:33:26;;;;;;;28.63;2.30;;;37.30;1.00;;;;;;5052941;28;20992;-74
2022/07/08 09:35:55;;;;;;;25.90;2.13;;;37.00;1.00;;;;;;5069359;28;20488;-74
2022/07/08 09:38:24;;;;;;;25.47;1.90;;;37.40;1.00;;;;;;5069150;28;20542;-74
2022/07/08 09:40:55;;;;;;;26.80;2.10;;;37.50;1.00;;;;;;5055250;28;20488;-74
2022/07/08 09:43:22;;;;;;;26.83;2.30;;;36.90;1.00;;;;;;5069236;28;20500;-73
2022/07/08 09:45:49;;;;;;;28.07;2.20;;;35.90;1.00;;;;;;5068260;28;20969;-73
2022/07/08 09:48:16;;;;;;;29.03;3.10;;;34.70;1.00;;;;;;5053469;28;20552;-73
2022/07/08 09:50:45;;;;;;;28.17;2.53;;;33.60;1.00;;;;;;5052755;28;20458;-73
2022/07/08 09:53:13;;;;;;;26.90;2.50;;;32.60;1.00;;;;;;5061417;28;20969;-74
2022/07/08 09:55:42;;;;;;;29.07;2.60;;;32.10;1.00;;;;;;5069851;28;20467;-73
2022/07/08 09:58:12;;;;;;;27.50;2.40;;;31.70;1.00;;;;;;5057086;28;20464;-74
2022/07/08 10:00:40;;;;;;;26.50;2.37;;;31.40;1.00;;;;;;5047599;28;20478;-73
2022/07/08 10:03:07;;;;;;;29.10;2.53;;;31.10;1.00;;;;;;5049150;28;20481;-74
2022/07/08 10:05:34;;;;;;;27.70;2.50;;;30.90;1.00;;;;;;5054081;28;20453;-73
2022/07/08 10:08:02;;;;;;;27.93;2.53;;;30.60;1.00;;;;;;5049275;28;20990;-74
2022/07/08 10:10:29;;;;;;;27.70;2.63;;;30.40;1.00;;;;;;5049044;28;20945;-73
2022/07/08 10:16:20;;;;;;;27.07;2.10;;;30.20;1.00;;;;;;5060614;28;20520;-74
2022/07/08 10:18:50;;;;;;;29.80;2.90;;;30.00;1.00;;;;;;5055563;28;20454;-73
2022/07/08 10:21:21;;;;;;;30.60;2.83;;;29.80;1.00;;;;;;5060915;28;20456;-75
2022/07/08 10:23:51;;;;;;;30.37;2.57;;;29.40;1.00;;;;;;5053764;28;20449;-73
2022/07/08 10:26:22;;;;;;;30.53;3.13;;;29.10;1.00;;;;;;5063386;28;20481;-73
2022/07/08 10:29:01;;;;;;;28.53;2.30;;;29.00;1.00;;;;;;5041037;28;20453;-74
2022/07/08 10:31:30;;;;;;;27.27;2.40;;;28.80;1.00;;;;;;5061608;28;20473;-74
2022/07/08 10:34:01;;;;;;;33.83;3.87;;;28.60;1.00;;;;;;5050040;28;20520;-73
2022/07/08 10:36:27;;;;;;;30.07;2.50;;;28.60;1.00;;;;;;5059744;28;20539;-73
2022/07/08 10:38:56;;;;;;;29.37;2.73;;;28.50;1.00;;;;;;5061325;28;20503;-73
2022/07/08 10:41:26;;;;;;;31.40;3.50;;;28.30;1.00;;;;;;5054959;28;21023;-73
2022/07/08 10:43:54;;;;;;;27.53;2.30;;;28.30;1.00;;;;;;5045206;28;20470;-73
2022/07/08 10:46:22;;;;;;;30.93;2.80;;;28.30;1.00;;;;;;5049460;28;20492;-73
2022/07/08 10:48:55;;;;;;;28.60;2.40;;;28.20;1.00;;;;;;5068558;28;20489;-74
2022/07/08 10:51:46;;;;;;;29.47;2.60;;;28.20;1.00;;;;;;5059651;28;20461;-74
2022/07/08 10:54:30;;;;;;;27.40;2.33;;;28.20;1.00;;;;;;5040179;28;20461;-74
2022/07/08 10:57:00;;;;;;;30.50;2.27;;;28.00;1.00;;;;;;5061488;28;21147;-75
2022/07/08 10:59:28;;;;;;;28.90;2.33;;;27.90;1.00;;;;;;5061938;28;21204;-73
2022/07/08 11:05:40;;;;;;;33.23;3.40;;;27.50;1.00;;;;;;5045282;28;20813;-74
2022/07/08 11:08:22;;;;;;;29.60;2.33;;;27.30;1.00;;;;;;5068258;28;20467;-73
2022/07/08 11:10:51;;;;;;;29.10;2.50;;;27.20;1.00;;;;;;5056025;28;20483;-73
2022/07/08 11:13:19;;;;;;;29.17;2.90;;;26.90;1.00;;;;;;5048388;28;20457;-73
2022/07/08 11:15:46;;;;;;;29.73;2.90;;;26.80;1.00;;;;;;5040757;28;20462;-73
2022/07/08 11:18:20;;;;;;;29.07;2.63;;;26.60;1.00;;;;;;5060859;28;20461;-73
2022/07/08 11:20:49;;;;;;;27.90;2.47;;;26.50;1.00;;;;;;5050455;28;21009;-74
2022/07/08 11:23:20;;;;;;;29.00;3.00;;;26.60;1.00;;;;;;5047083;28;20981;-75
2022/07/08 11:25:47;;;;;;;29.17;2.80;;;26.60;1.00;;;;;;5049134;28;20556;-74
2022/07/08 11:28:21;;;;;;;28.47;2.77;;;26.70;1.00;;;;;;5049514;28;20962;-75
2022/07/08 11:30:48;;;;;;;28.97;2.40;;;26.60;1.00;;;;;;5042050;28;20505;-73
2022/07/08 11:33:14;;;;;;;31.30;2.60;;;26.60;1.00;;;;;;5051210;28;20457;-73
2022/07/08 11:35:41;;;;;;;28.67;2.83;;;26.40;1.00;;;;;;5043792;28;20458;-73
2022/07/08 11:38:09;;;;;;;27.67;2.60;;;26.20;1.00;;;;;;5057657;28;21014;-73
2022/07/08 11:40:42;;;;;;;30.37;3.33;;;25.90;1.00;;;;;;5040546;28;20483;-73
2022/07/08 11:43:15;;;;;;;29.27;2.53;;;25.70;1.00;;;;;;5043062;28;20470;-73
2022/07/08 11:45:42;;;;;;;31.27;2.70;;;25.50;1.00;;;;;;5045588;28;20466;-73
2022/07/08 11:48:09;;;;;;;28.50;2.80;;;25.30;1.00;;;;;;5045537;28;20489;-74
2022/07/08 11:50:38;;;;;;;29.60;2.60;;;25.00;1.00;;;;;;5059201;28;20453;-74
2022/07/08 11:53:05;;;;;;;29.00;3.00;;;25.00;2.30;;;;;;5071381;28;20456;-73
2022/07/08 11:55:44;;;;;;;30.30;3.10;;;25.00;1.70;;;;;;5060321;28;20840;-73
2022/07/08 11:58:11;;;;;;;29.67;2.70;;;24.80;1.20;;;;;;5066453;28;20452;-74
2022/07/08 12:00:38;;;;;;;29.23;2.67;;;24.60;1.10;;;;;;5056900;28;20473;-74
2022/07/08 12:03:05;;;;;;;30.47;3.13;;;24.40;1.60;;;;;;5057408;28;20467;-73
2022/07/08 12:05:36;;;;;;;29.97;3.40;;;24.10;2.20;;;;;;5061747;28;20462;-74
2022/07/08 12:08:10;;;;;;;28.90;2.93;;;23.90;2.70;;;;;;5056960;28;20466;-73
2022/07/08 12:10:38;;;;;;;28.50;2.90;;;23.70;3.00;;;;;;5061354;28;20461;-74
2022/07/08 12:13:05;;;;;;;30.60;3.23;;;23.70;4.30;;;;;;5056952;28;20464;-73
2022/07/08 12:15:36;;;;;;;27.97;3.00;;;23.80;4.90;;;;;;5049820;28;20954;-73
2022/07/08 12:18:04;;;;;;;31.30;3.67;;;23.70;4.80;;;;;;5060657;28;20963;-73
2022/07/08 12:20:32;;;;;;;29.07;2.30;;;23.80;3.80;;;;;;5057488;28;20485;-73
2022/07/08 12:22:59;;;;;;;29.97;2.83;;;23.80;3.50;;;;;;5056305;28;20458;-73
2022/07/08 12:25:26;;;;;;;31.33;3.43;;;23.90;3.50;;;;;;5044031;28;20462;-72
2022/07/08 12:27:58;;;;;;;31.37;3.30;;;24.00;4.70;;;;;;5050835;28;20481;-73
2022/07/08 12:30:27;;;;;;;33.60;3.47;;;24.10;4.30;;;;;;5044186;28;20516;-73
2022/07/08 12:33:00;;;;;;;30.80;3.40;;;24.10;4.10;;;;;;5044786;28;20458;-73
2022/07/08 12:35:29;;;;;;;29.60;2.70;;;24.00;3.00;;;;;;5048416;28;20462;-74
2022/07/08 12:38:04;;;;;;;29.97;2.83;;;23.80;3.20;;;;;;5049822;28;20569;-73
2022/07/08 12:40:38;;;;;;;30.80;3.13;;;23.70;3.60;;;;;;5045564;28;20481;-74
2022/07/08 12:43:08;;;;;;;30.73;4.10;;;23.60;4.30;;;;;;5043583;28;20466;-74
2022/07/08 12:45:35;;;;;;;30.77;3.67;;;23.50;4.70;;;;;;5044096;28;20467;-73
2022/07/08 12:48:03;;;;;;;28.87;2.37;;;23.50;4.80;;;;;;5046334;28;20557;-72
2022/07/08 12:50:31;;;;;;;29.17;2.30;;;23.50;4.40;;;;;;5039870;28;20960;-72
2022/07/08 12:52:59;;;;;;;33.63;3.33;;;23.40;4.20;;;;;;5052400;28;21328;-74